sensor_id;sensor_type;location;lat;lon;timestamp;P1;durP1;ratioP1;P2;durP2;ratioP2
65230;SDS011;51813;40.666;16.602;2024-02-23T00:02:03;8.20;;;5.20;;
65230;SDS011;51813;40.666;16.602;2024-02-23T00:04:29;6.28;;;4.75;;
65230;SDS011;51813;40.666;16.602;2024-02-23T00:06:54;6.57;;;5.10;;
65230;SDS011;51813;40.666;16.602;2024-02-23T00:09:20;6.18;;;4.90;;
65230;SDS011;51813;40.666;16.602;2024-02-23T00:11:46;6.85;;;5.13;;
65230;SDS011;51813;40.666;16.602;2024-02-23T00:14:12;6.28;;;5.15;;
65230;SDS011;51813;40.666;16.602;2024-02-23T00:16:41;7.40;;;5.00;;
65230;SDS011;51813;40.666;16.602;2024-02-23T00:19:07;6.65;;;5.20;;
65230;SDS011;51813;40.666;16.602;2024-02-23T00:21:36;6.85;;;5.07;;
65230;SDS011;51813;40.666;16.602;2024-02-23T00:24:03;7.47;;;5.40;;
65230;SDS011;51813;40.666;16.602;2024-02-23T00:26:30;7.03;;;5.05;;
65230;SDS011;51813;40.666;16.602;2024-02-23T00:28:56;6.45;;;5.10;;
65230;SDS011;51813;40.666;16.602;2024-02-23T00:31:21;6.25;;;5.10;;
65230;SDS011;51813;40.666;16.602;2024-02-23T00:33:47;7.82;;;5.20;;
65230;SDS011;51813;40.666;16.602;2024-02-23T00:36:12;6.75;;;5.10;;
65230;SDS011;51813;40.666;16.602;2024-02-23T00:38:39;7.55;;;5.40;;
65230;SDS011;51813;40.666;16.602;2024-02-23T00:41:05;6.03;;;4.88;;
65230;SDS011;51813;40.666;16.602;2024-02-23T00:43:37;6.53;;;5.00;;
65230;SDS011;51813;40.666;16.602;2024-02-23T00:46:04;6.72;;;5.18;;
65230;SDS011;51813;40.666;16.602;2024-02-23T00:48:29;7.22;;;5.10;;
65230;SDS011;51813;40.666;16.602;2024-02-23T00:50:55;6.68;;;5.00;;
65230;SDS011;51813;40.666;16.602;2024-02-23T00:53:21;6.63;;;5.00;;
65230;SDS011;51813;40.666;16.602;2024-02-23T00:55:47;6.55;;;5.00;;
65230;SDS011;51813;40.666;16.602;2024-02-23T00:58:12;7.07;;;5.28;;
65230;SDS011;51813;40.666;16.602;2024-02-23T01:00:38;6.53;;;4.93;;
65230;SDS011;51813;40.666;16.602;2024-02-23T01:03:04;6.63;;;5.00;;
65230;SDS011;51813;40.666;16.602;2024-02-23T01:05:30;6.20;;;4.65;;
65230;SDS011;51813;40.666;16.602;2024-02-23T01:07:55;5.97;;;4.95;;
65230;SDS011;51813;40.666;16.602;2024-02-23T01:10:21;7.82;;;5.28;;
65230;SDS011;51813;40.666;16.602;2024-02-23T01:12:47;6.90;;;5.03;;
65230;SDS011;51813;40.666;16.602;2024-02-23T01:15:12;6.07;;;4.50;;
65230;SDS011;51813;40.666;16.602;2024-02-23T01:17:38;8.10;;;4.95;;
65230;SDS011;51813;40.666;16.602;2024-02-23T01:20:04;6.50;;;4.90;;
65230;SDS011;51813;40.666;16.602;2024-02-23T01:22:30;7.32;;;4.93;;
65230;SDS011;51813;40.666;16.602;2024-02-23T01:24:56;8.57;;;5.35;;
65230;SDS011;51813;40.666;16.602;2024-02-23T01:27:22;6.30;;;5.00;;
65230;SDS011;51813;40.666;16.602;2024-02-23T01:29:47;6.53;;;4.90;;
65230;SDS011;51813;40.666;16.602;2024-02-23T01:32:13;6.00;;;4.68;;
65230;SDS011;51813;40.666;16.602;2024-02-23T01:34:39;6.38;;;4.70;;
65230;SDS011;51813;40.666;16.602;2024-02-23T01:37:04;6.75;;;5.07;;
65230;SDS011;51813;40.666;16.602;2024-02-23T01:39:30;7.43;;;5.03;;
65230;SDS011;51813;40.666;16.602;2024-02-23T01:41:55;6.85;;;4.90;;
65230;SDS011;51813;40.666;16.602;2024-02-23T01:44:21;7.03;;;5.28;;
65230;SDS011;51813;40.666;16.602;2024-02-23T01:46:47;6.63;;;4.93;;
65230;SDS011;51813;40.666;16.602;2024-02-23T01:49:14;7.18;;;4.72;;
65230;SDS011;51813;40.666;16.602;2024-02-23T01:51:39;6.07;;;4.80;;
65230;SDS011;51813;40.666;16.602;2024-02-23T01:54:05;6.38;;;4.55;;
65230;SDS011;51813;40.666;16.602;2024-02-23T01:56:32;6.13;;;4.93;;
65230;SDS011;51813;40.666;16.602;2024-02-23T01:58:59;6.13;;;4.75;;
65230;SDS011;51813;40.666;16.602;2024-02-23T02:01:25;7.85;;;4.93;;
65230;SDS011;51813;40.666;16.602;2024-02-23T02:03:51;6.50;;;4.68;;
65230;SDS011;51813;40.666;16.602;2024-02-23T02:06:17;7.03;;;4.88;;
65230;SDS011;51813;40.666;16.602;2024-02-23T02:08:43;6.45;;;4.57;;
65230;SDS011;51813;40.666;16.602;2024-02-23T02:11:08;6.47;;;4.88;;
65230;SDS011;51813;40.666;16.602;2024-02-23T02:13:34;7.25;;;5.40;;
65230;SDS011;51813;40.666;16.602;2024-02-23T02:16:00;6.20;;;4.70;;
65230;SDS011;51813;40.666;16.602;2024-02-23T02:18:27;6.78;;;4.63;;
65230;SDS011;51813;40.666;16.602;2024-02-23T02:20:56;6.88;;;4.93;;
65230;SDS011;51813;40.666;16.602;2024-02-23T02:23:23;6.63;;;4.80;;
65230;SDS011;51813;40.666;16.602;2024-02-23T02:25:55;5.95;;;4.65;;
65230;SDS011;51813;40.666;16.602;2024-02-23T02:28:22;6.30;;;4.63;;
65230;SDS011;51813;40.666;16.602;2024-02-23T02:30:49;6.00;;;4.70;;
65230;SDS011;51813;40.666;16.602;2024-02-23T02:33:15;6.40;;;4.55;;
65230;SDS011;51813;40.666;16.602;2024-02-23T02:35:41;6.60;;;4.60;;
65230;SDS011;51813;40.666;16.602;2024-02-23T02:38:06;7.07;;;4.75;;
65230;SDS011;51813;40.666;16.602;2024-02-23T02:40:32;5.97;;;4.78;;
65230;SDS011;51813;40.666;16.602;2024-02-23T02:42:58;6.28;;;4.80;;
65230;SDS011;51813;40.666;16.602;2024-02-23T02:45:23;6.72;;;4.68;;
65230;SDS011;51813;40.666;16.602;2024-02-23T02:47:49;6.10;;;4.70;;
65230;SDS011;51813;40.666;16.602;2024-02-23T02:50:16;6.93;;;5.20;;
65230;SDS011;51813;40.666;16.602;2024-02-23T02:52:42;6.57;;;4.20;;
65230;SDS011;51813;40.666;16.602;2024-02-23T02:55:07;5.75;;;4.57;;
65230;SDS011;51813;40.666;16.602;2024-02-23T02:57:33;6.20;;;4.57;;
65230;SDS011;51813;40.666;16.602;2024-02-23T03:00:01;5.97;;;4.80;;
65230;SDS011;51813;40.666;16.602;2024-02-23T03:02:30;6.70;;;4.93;;
65230;SDS011;51813;40.666;16.602;2024-02-23T03:04:56;6.95;;;4.70;;
65230;SDS011;51813;40.666;16.602;2024-02-23T03:07:22;5.88;;;4.50;;
65230;SDS011;51813;40.666;16.602;2024-02-23T03:09:47;7.25;;;5.13;;
65230;SDS011;51813;40.666;16.602;2024-02-23T03:12:15;6.10;;;4.90;;
65230;SDS011;51813;40.666;16.602;2024-02-23T03:14:41;6.63;;;4.50;;
65230;SDS011;51813;40.666;16.602;2024-02-23T03:17:07;6.10;;;4.50;;
65230;SDS011;51813;40.666;16.602;2024-02-23T03:19:34;6.90;;;5.22;;
65230;SDS011;51813;40.666;16.602;2024-02-23T03:22:00;6.35;;;4.85;;
65230;SDS011;51813;40.666;16.602;2024-02-23T03:24:26;6.55;;;4.72;;
65230;SDS011;51813;40.666;16.602;2024-02-23T03:26:52;6.72;;;4.60;;
65230;SDS011;51813;40.666;16.602;2024-02-23T03:29:17;6.80;;;4.45;;
65230;SDS011;51813;40.666;16.602;2024-02-23T03:31:43;6.40;;;4.63;;
65230;SDS011;51813;40.666;16.602;2024-02-23T03:34:09;5.75;;;4.75;;
65230;SDS011;51813;40.666;16.602;2024-02-23T03:36:34;7.32;;;4.75;;
65230;SDS011;51813;40.666;16.602;2024-02-23T03:39:01;6.32;;;4.80;;
65230;SDS011;51813;40.666;16.602;2024-02-23T03:41:27;7.43;;;5.18;;
65230;SDS011;51813;40.666;16.602;2024-02-23T03:43:52;5.82;;;4.70;;
65230;SDS011;51813;40.666;16.602;2024-02-23T03:46:18;6.45;;;5.25;;
65230;SDS011;51813;40.666;16.602;2024-02-23T03:48:45;6.57;;;5.25;;
65230;SDS011;51813;40.666;16.602;2024-02-23T03:51:10;7.60;;;5.10;;
65230;SDS011;51813;40.666;16.602;2024-02-23T03:53:36;6.72;;;4.85;;
65230;SDS011;51813;40.666;16.602;2024-02-23T03:56:02;7.47;;;5.05;;
65230;SDS011;51813;40.666;16.602;2024-02-23T03:58:28;6.18;;;4.78;;
65230;SDS011;51813;40.666;16.602;2024-02-23T04:00:54;6.78;;;5.03;;
65230;SDS011;51813;40.666;16.602;2024-02-23T04:03:19;5.90;;;4.45;;
65230;SDS011;51813;40.666;16.602;2024-02-23T04:05:45;5.13;;;4.43;;
65230;SDS011;51813;40.666;16.602;2024-02-23T04:08:11;5.90;;;4.80;;
65230;SDS011;51813;40.666;16.602;2024-02-23T04:10:37;6.40;;;5.13;;
65230;SDS011;51813;40.666;16.602;2024-02-23T04:13:02;6.38;;;5.00;;
65230;SDS011;51813;40.666;16.602;2024-02-23T04:15:28;6.35;;;4.88;;
65230;SDS011;51813;40.666;16.602;2024-02-23T04:17:54;6.03;;;4.63;;
65230;SDS011;51813;40.666;16.602;2024-02-23T04:20:19;6.57;;;4.90;;
65230;SDS011;51813;40.666;16.602;2024-02-23T04:22:45;6.18;;;4.63;;
65230;SDS011;51813;40.666;16.602;2024-02-23T04:25:11;6.03;;;4.57;;
65230;SDS011;51813;40.666;16.602;2024-02-23T04:27:37;5.97;;;4.75;;
65230;SDS011;51813;40.666;16.602;2024-02-23T04:30:03;6.28;;;4.47;;
65230;SDS011;51813;40.666;16.602;2024-02-23T04:32:29;7.00;;;4.50;;
65230;SDS011;51813;40.666;16.602;2024-02-23T04:34:55;7.30;;;4.97;;
65230;SDS011;51813;40.666;16.602;2024-02-23T04:37:21;6.43;;;4.40;;
65230;SDS011;51813;40.666;16.602;2024-02-23T04:39:47;6.72;;;4.90;;
65230;SDS011;51813;40.666;16.602;2024-02-23T04:42:12;5.78;;;4.30;;
65230;SDS011;51813;40.666;16.602;2024-02-23T04:44:38;6.45;;;5.30;;
65230;SDS011;51813;40.666;16.602;2024-02-23T04:47:06;6.18;;;4.90;;
65230;SDS011;51813;40.666;16.602;2024-02-23T04:49:32;6.10;;;4.60;;
65230;SDS011;51813;40.666;16.602;2024-02-23T04:51:57;5.93;;;4.65;;
65230;SDS011;51813;40.666;16.602;2024-02-23T04:54:23;5.95;;;4.72;;
65230;SDS011;51813;40.666;16.602;2024-02-23T04:56:48;6.32;;;4.63;;
65230;SDS011;51813;40.666;16.602;2024-02-23T04:59:15;6.07;;;4.70;;
65230;SDS011;51813;40.666;16.602;2024-02-23T05:01:41;7.22;;;5.05;;
65230;SDS011;51813;40.666;16.602;2024-02-23T05:04:07;6.88;;;4.90;;
65230;SDS011;51813;40.666;16.602;2024-02-23T05:06:33;6.18;;;4.72;;
65230;SDS011;51813;40.666;16.602;2024-02-23T05:09:00;7.28;;;5.00;;
65230;SDS011;51813;40.666;16.602;2024-02-23T05:11:26;7.32;;;5.10;;
65230;SDS011;51813;40.666;16.602;2024-02-23T05:13:52;6.47;;;4.93;;
65230;SDS011;51813;40.666;16.602;2024-02-23T05:16:18;6.20;;;4.70;;
65230;SDS011;51813;40.666;16.602;2024-02-23T05:18:44;6.53;;;5.05;;
65230;SDS011;51813;40.666;16.602;2024-02-23T05:21:15;6.15;;;4.93;;
65230;SDS011;51813;40.666;16.602;2024-02-23T05:23:41;6.78;;;4.97;;
65230;SDS011;51813;40.666;16.602;2024-02-23T05:26:07;7.90;;;4.70;;
65230;SDS011;51813;40.666;16.602;2024-02-23T05:28:33;6.40;;;4.80;;
65230;SDS011;51813;40.666;16.602;2024-02-23T05:30:58;7.13;;;5.50;;
65230;SDS011;51813;40.666;16.602;2024-02-23T05:33:28;6.63;;;4.70;;
65230;SDS011;51813;40.666;16.602;2024-02-23T05:35:54;6.57;;;5.10;;
65230;SDS011;51813;40.666;16.602;2024-02-23T05:38:20;7.07;;;5.22;;
65230;SDS011;51813;40.666;16.602;2024-02-23T05:40:45;8.13;;;5.25;;
65230;SDS011;51813;40.666;16.602;2024-02-23T05:43:13;6.30;;;4.60;;
65230;SDS011;51813;40.666;16.602;2024-02-23T05:45:39;7.10;;;5.10;;
65230;SDS011;51813;40.666;16.602;2024-02-23T05:48:05;6.13;;;4.80;;
65230;SDS011;51813;40.666;16.602;2024-02-23T05:50:31;5.95;;;4.40;;
65230;SDS011;51813;40.666;16.602;2024-02-23T05:52:57;6.60;;;4.93;;
65230;SDS011;51813;40.666;16.602;2024-02-23T05:55:23;6.93;;;5.13;;
65230;SDS011;51813;40.666;16.602;2024-02-23T05:57:49;6.20;;;4.80;;
65230;SDS011;51813;40.666;16.602;2024-02-23T06:00:15;6.63;;;5.07;;
65230;SDS011;51813;40.666;16.602;2024-02-23T06:02:44;6.72;;;4.82;;
65230;SDS011;51813;40.666;16.602;2024-02-23T06:05:10;7.60;;;4.82;;
65230;SDS011;51813;40.666;16.602;2024-02-23T06:07:36;6.60;;;4.78;;
65230;SDS011;51813;40.666;16.602;2024-02-23T06:10:02;6.95;;;4.82;;
65230;SDS011;51813;40.666;16.602;2024-02-23T06:12:28;6.75;;;4.90;;
65230;SDS011;51813;40.666;16.602;2024-02-23T06:14:54;6.88;;;4.70;;
65230;SDS011;51813;40.666;16.602;2024-02-23T06:17:21;6.32;;;4.90;;
65230;SDS011;51813;40.666;16.602;2024-02-23T06:19:48;7.53;;;4.80;;
65230;SDS011;51813;40.666;16.602;2024-02-23T06:22:14;7.07;;;5.55;;
65230;SDS011;51813;40.666;16.602;2024-02-23T06:24:42;5.97;;;4.75;;
65230;SDS011;51813;40.666;16.602;2024-02-23T06:27:07;6.57;;;4.95;;
65230;SDS011;51813;40.666;16.602;2024-02-23T06:29:33;6.20;;;4.82;;
65230;SDS011;51813;40.666;16.602;2024-02-23T06:32:00;6.97;;;4.80;;
65230;SDS011;51813;40.666;16.602;2024-02-23T06:34:28;7.80;;;5.45;;
65230;SDS011;51813;40.666;16.602;2024-02-23T06:36:53;6.80;;;5.00;;
65230;SDS011;51813;40.666;16.602;2024-02-23T06:39:19;6.88;;;4.70;;
65230;SDS011;51813;40.666;16.602;2024-02-23T06:41:45;6.75;;;4.65;;
65230;SDS011;51813;40.666;16.602;2024-02-23T06:44:10;6.55;;;5.03;;
65230;SDS011;51813;40.666;16.602;2024-02-23T06:46:36;7.07;;;4.75;;
65230;SDS011;51813;40.666;16.602;2024-02-23T06:49:02;7.30;;;4.80;;
65230;SDS011;51813;40.666;16.602;2024-02-23T06:51:29;5.78;;;4.40;;
65230;SDS011;51813;40.666;16.602;2024-02-23T06:53:56;6.55;;;5.13;;
65230;SDS011;51813;40.666;16.602;2024-02-23T06:56:22;5.38;;;4.25;;
65230;SDS011;51813;40.666;16.602;2024-02-23T06:58:48;6.32;;;4.40;;
65230;SDS011;51813;40.666;16.602;2024-02-23T07:01:14;5.57;;;4.50;;
65230;SDS011;51813;40.666;16.602;2024-02-23T07:03:39;6.75;;;4.63;;
65230;SDS011;51813;40.666;16.602;2024-02-23T07:06:07;7.72;;;4.93;;
65230;SDS011;51813;40.666;16.602;2024-02-23T07:08:35;7.05;;;5.07;;
65230;SDS011;51813;40.666;16.602;2024-02-23T07:11:01;5.75;;;4.25;;
65230;SDS011;51813;40.666;16.602;2024-02-23T07:13:26;6.65;;;5.03;;
65230;SDS011;51813;40.666;16.602;2024-02-23T07:15:52;6.65;;;4.80;;
65230;SDS011;51813;40.666;16.602;2024-02-23T07:18:18;6.85;;;5.03;;
65230;SDS011;51813;40.666;16.602;2024-02-23T07:20:44;7.80;;;5.25;;
65230;SDS011;51813;40.666;16.602;2024-02-23T07:23:09;8.65;;;6.05;;
65230;SDS011;51813;40.666;16.602;2024-02-23T07:25:35;10.07;;;5.95;;
65230;SDS011;51813;40.666;16.602;2024-02-23T07:28:01;9.60;;;6.57;;
65230;SDS011;51813;40.666;16.602;2024-02-23T07:30:26;10.48;;;7.00;;
65230;SDS011;51813;40.666;16.602;2024-02-23T07:32:52;8.57;;;6.82;;
65230;SDS011;51813;40.666;16.602;2024-02-23T07:35:17;10.48;;;7.07;;
65230;SDS011;51813;40.666;16.602;2024-02-23T07:37:43;10.35;;;6.82;;
65230;SDS011;51813;40.666;16.602;2024-02-23T07:40:09;9.38;;;6.60;;
65230;SDS011;51813;40.666;16.602;2024-02-23T07:42:35;9.88;;;6.13;;
65230;SDS011;51813;40.666;16.602;2024-02-23T07:45:04;8.40;;;6.20;;
65230;SDS011;51813;40.666;16.602;2024-02-23T07:47:31;8.40;;;5.97;;
65230;SDS011;51813;40.666;16.602;2024-02-23T07:49:57;10.63;;;6.40;;
65230;SDS011;51813;40.666;16.602;2024-02-23T07:52:24;9.90;;;6.18;;
65230;SDS011;51813;40.666;16.602;2024-02-23T07:54:51;7.22;;;6.05;;
65230;SDS011;51813;40.666;16.602;2024-02-23T07:57:17;8.75;;;5.85;;
65230;SDS011;51813;40.666;16.602;2024-02-23T07:59:44;8.25;;;5.80;;
65230;SDS011;51813;40.666;16.602;2024-02-23T08:02:09;7.63;;;5.72;;
65230;SDS011;51813;40.666;16.602;2024-02-23T08:04:35;10.15;;;6.43;;
65230;SDS011;51813;40.666;16.602;2024-02-23T08:07:01;8.20;;;5.93;;
65230;SDS011;51813;40.666;16.602;2024-02-23T08:09:27;8.30;;;6.20;;
65230;SDS011;51813;40.666;16.602;2024-02-23T08:11:53;7.75;;;5.78;;
65230;SDS011;51813;40.666;16.602;2024-02-23T08:14:18;8.27;;;6.35;;
65230;SDS011;51813;40.666;16.602;2024-02-23T08:16:44;7.45;;;5.47;;
65230;SDS011;51813;40.666;16.602;2024-02-23T08:19:10;7.97;;;5.57;;
65230;SDS011;51813;40.666;16.602;2024-02-23T08:21:36;7.78;;;5.53;;
65230;SDS011;51813;40.666;16.602;2024-02-23T08:24:02;7.15;;;5.45;;
65230;SDS011;51813;40.666;16.602;2024-02-23T08:26:28;6.70;;;5.50;;
65230;SDS011;51813;40.666;16.602;2024-02-23T08:28:54;8.13;;;6.07;;
65230;SDS011;51813;40.666;16.602;2024-02-23T08:31:20;7.18;;;5.03;;
65230;SDS011;51813;40.666;16.602;2024-02-23T08:33:46;7.15;;;5.65;;
65230;SDS011;51813;40.666;16.602;2024-02-23T08:36:12;7.65;;;5.38;;
65230;SDS011;51813;40.666;16.602;2024-02-23T08:38:37;12.98;;;5.65;;
65230;SDS011;51813;40.666;16.602;2024-02-23T08:41:03;9.30;;;5.65;;
65230;SDS011;51813;40.666;16.602;2024-02-23T08:43:29;7.03;;;5.32;;
65230;SDS011;51813;40.666;16.602;2024-02-23T08:45:54;7.85;;;5.70;;
65230;SDS011;51813;40.666;16.602;2024-02-23T08:48:20;9.35;;;5.80;;
65230;SDS011;51813;40.666;16.602;2024-02-23T08:50:46;7.57;;;5.30;;
65230;SDS011;51813;40.666;16.602;2024-02-23T08:53:11;9.75;;;5.68;;
65230;SDS011;51813;40.666;16.602;2024-02-23T08:55:37;9.48;;;5.93;;
65230;SDS011;51813;40.666;16.602;2024-02-23T08:58:03;10.07;;;5.72;;
65230;SDS011;51813;40.666;16.602;2024-02-23T09:00:30;7.20;;;5.35;;
65230;SDS011;51813;40.666;16.602;2024-02-23T09:02:56;8.65;;;5.60;;
65230;SDS011;51813;40.666;16.602;2024-02-23T09:05:22;7.28;;;5.35;;
65230;SDS011;51813;40.666;16.602;2024-02-23T09:07:48;8.05;;;5.53;;
65230;SDS011;51813;40.666;16.602;2024-02-23T09:10:13;9.23;;;6.30;;
65230;SDS011;51813;40.666;16.602;2024-02-23T09:12:39;8.52;;;6.15;;
65230;SDS011;51813;40.666;16.602;2024-02-23T09:15:05;8.75;;;5.68;;
65230;SDS011;51813;40.666;16.602;2024-02-23T09:17:31;8.48;;;5.53;;
65230;SDS011;51813;40.666;16.602;2024-02-23T09:19:57;8.07;;;5.28;;
65230;SDS011;51813;40.666;16.602;2024-02-23T09:22:22;10.57;;;5.32;;
65230;SDS011;51813;40.666;16.602;2024-02-23T09:24:48;8.68;;;6.05;;
65230;SDS011;51813;40.666;16.602;2024-02-23T09:27:14;9.10;;;5.32;;
65230;SDS011;51813;40.666;16.602;2024-02-23T09:29:40;7.50;;;5.55;;
65230;SDS011;51813;40.666;16.602;2024-02-23T09:32:09;9.80;;;6.05;;
65230;SDS011;51813;40.666;16.602;2024-02-23T09:34:35;7.20;;;5.70;;
65230;SDS011;51813;40.666;16.602;2024-02-23T09:37:01;7.85;;;5.78;;
65230;SDS011;51813;40.666;16.602;2024-02-23T09:39:26;7.60;;;5.60;;
65230;SDS011;51813;40.666;16.602;2024-02-23T09:41:55;7.60;;;5.43;;
65230;SDS011;51813;40.666;16.602;2024-02-23T09:44:21;8.85;;;5.03;;
65230;SDS011;51813;40.666;16.602;2024-02-23T09:46:47;7.68;;;5.53;;
65230;SDS011;51813;40.666;16.602;2024-02-23T09:49:14;6.90;;;5.22;;
65230;SDS011;51813;40.666;16.602;2024-02-23T09:51:41;8.52;;;5.13;;
65230;SDS011;51813;40.666;16.602;2024-02-23T09:54:07;7.88;;;5.43;;
65230;SDS011;51813;40.666;16.602;2024-02-23T09:56:32;6.30;;;4.80;;
65230;SDS011;51813;40.666;16.602;2024-02-23T09:59:02;10.82;;;5.40;;
65230;SDS011;51813;40.666;16.602;2024-02-23T10:01:32;9.50;;;5.10;;
65230;SDS011;51813;40.666;16.602;2024-02-23T10:03:58;6.57;;;4.90;;
65230;SDS011;51813;40.666;16.602;2024-02-23T10:06:29;6.78;;;5.03;;
65230;SDS011;51813;40.666;16.602;2024-02-23T10:08:55;6.57;;;4.45;;
65230;SDS011;51813;40.666;16.602;2024-02-23T10:11:21;8.20;;;5.05;;
65230;SDS011;51813;40.666;16.602;2024-02-23T10:13:47;6.70;;;5.00;;
65230;SDS011;51813;40.666;16.602;2024-02-23T10:16:19;6.40;;;4.53;;
65230;SDS011;51813;40.666;16.602;2024-02-23T10:18:46;6.82;;;5.00;;
65230;SDS011;51813;40.666;16.602;2024-02-23T10:21:15;6.82;;;5.25;;
65230;SDS011;51813;40.666;16.602;2024-02-23T10:23:44;8.07;;;4.95;;
65230;SDS011;51813;40.666;16.602;2024-02-23T10:26:10;7.28;;;4.68;;
65230;SDS011;51813;40.666;16.602;2024-02-23T10:28:38;6.85;;;4.80;;
65230;SDS011;51813;40.666;16.602;2024-02-23T10:31:07;8.32;;;4.97;;
65230;SDS011;51813;40.666;16.602;2024-02-23T10:33:33;6.85;;;4.75;;
65230;SDS011;51813;40.666;16.602;2024-02-23T10:36:00;7.40;;;5.40;;
65230;SDS011;51813;40.666;16.602;2024-02-23T10:38:30;8.73;;;5.28;;
65230;SDS011;51813;40.666;16.602;2024-02-23T10:40:57;7.25;;;4.95;;
65230;SDS011;51813;40.666;16.602;2024-02-23T10:43:29;6.30;;;4.30;;
65230;SDS011;51813;40.666;16.602;2024-02-23T10:46:01;6.10;;;4.60;;
65230;SDS011;51813;40.666;16.602;2024-02-23T10:48:30;6.30;;;4.75;;
65230;SDS011;51813;40.666;16.602;2024-02-23T10:50:56;6.93;;;4.50;;
65230;SDS011;51813;40.666;16.602;2024-02-23T10:53:24;6.60;;;4.35;;
65230;SDS011;51813;40.666;16.602;2024-02-23T10:55:52;7.22;;;5.20;;
65230;SDS011;51813;40.666;16.602;2024-02-23T10:58:23;5.95;;;4.63;;
65230;SDS011;51813;40.666;16.602;2024-02-23T11:00:49;6.22;;;4.97;;
65230;SDS011;51813;40.666;16.602;2024-02-23T11:03:15;6.35;;;4.85;;
65230;SDS011;51813;40.666;16.602;2024-02-23T11:05:42;6.30;;;5.00;;
65230;SDS011;51813;40.666;16.602;2024-02-23T11:08:08;6.38;;;4.70;;
65230;SDS011;51813;40.666;16.602;2024-02-23T11:10:43;5.75;;;4.35;;
65230;SDS011;51813;40.666;16.602;2024-02-23T11:13:15;6.78;;;4.72;;
65230;SDS011;51813;40.666;16.602;2024-02-23T11:15:41;5.47;;;4.18;;
65230;SDS011;51813;40.666;16.602;2024-02-23T11:18:27;6.00;;;4.10;;
65230;SDS011;51813;40.666;16.602;2024-02-23T11:20:53;6.35;;;4.68;;
65230;SDS011;51813;40.666;16.602;2024-02-23T11:23:41;7.18;;;4.93;;
65230;SDS011;51813;40.666;16.602;2024-02-23T11:26:13;6.15;;;4.72;;
65230;SDS011;51813;40.666;16.602;2024-02-23T11:28:48;6.72;;;4.70;;
65230;SDS011;51813;40.666;16.602;2024-02-23T11:31:21;9.90;;;4.97;;
65230;SDS011;51813;40.666;16.602;2024-02-23T11:33:55;7.55;;;5.15;;
65230;SDS011;51813;40.666;16.602;2024-02-23T11:36:22;10.75;;;5.85;;
65230;SDS011;51813;40.666;16.602;2024-02-23T11:38:56;7.40;;;5.05;;
65230;SDS011;51813;40.666;16.602;2024-02-23T11:41:23;8.38;;;5.85;;
65230;SDS011;51813;40.666;16.602;2024-02-23T11:43:50;10.20;;;6.07;;
65230;SDS011;51813;40.666;16.602;2024-02-23T11:46:16;7.82;;;5.47;;
65230;SDS011;51813;40.666;16.602;2024-02-23T11:48:43;7.88;;;5.85;;
65230;SDS011;51813;40.666;16.602;2024-02-23T11:51:15;7.28;;;6.03;;
65230;SDS011;51813;40.666;16.602;2024-02-23T11:53:41;9.00;;;6.20;;
65230;SDS011;51813;40.666;16.602;2024-02-23T11:56:08;7.80;;;6.03;;
65230;SDS011;51813;40.666;16.602;2024-02-23T11:58:35;8.40;;;6.00;;
65230;SDS011;51813;40.666;16.602;2024-02-23T12:01:01;7.70;;;5.78;;
65230;SDS011;51813;40.666;16.602;2024-02-23T12:03:30;8.18;;;5.53;;
65230;SDS011;51813;40.666;16.602;2024-02-23T12:06:00;7.35;;;5.10;;
65230;SDS011;51813;40.666;16.602;2024-02-23T12:08:26;7.82;;;5.78;;
65230;SDS011;51813;40.666;16.602;2024-02-23T12:10:55;8.70;;;5.80;;
65230;SDS011;51813;40.666;16.602;2024-02-23T12:13:21;7.00;;;5.20;;
65230;SDS011;51813;40.666;16.602;2024-02-23T12:15:48;7.20;;;5.57;;
65230;SDS011;51813;40.666;16.602;2024-02-23T12:18:17;6.80;;;5.35;;
65230;SDS011;51813;40.666;16.602;2024-02-23T12:20:48;6.40;;;5.20;;
65230;SDS011;51813;40.666;16.602;2024-02-23T12:23:14;7.82;;;5.80;;
65230;SDS011;51813;40.666;16.602;2024-02-23T12:25:40;7.57;;;5.35;;
65230;SDS011;51813;40.666;16.602;2024-02-23T12:28:18;6.65;;;5.22;;
65230;SDS011;51813;40.666;16.602;2024-02-23T12:30:43;6.57;;;5.00;;
65230;SDS011;51813;40.666;16.602;2024-02-23T12:33:11;6.72;;;5.22;;
65230;SDS011;51813;40.666;16.602;2024-02-23T12:35:41;7.80;;;5.22;;
65230;SDS011;51813;40.666;16.602;2024-02-23T12:38:06;6.35;;;4.85;;
65230;SDS011;51813;40.666;16.602;2024-02-23T12:40:32;6.18;;;4.93;;
65230;SDS011;51813;40.666;16.602;2024-02-23T12:42:58;7.55;;;5.00;;
65230;SDS011;51813;40.666;16.602;2024-02-23T12:45:23;6.13;;;4.80;;
65230;SDS011;51813;40.666;16.602;2024-02-23T12:47:49;6.75;;;5.05;;
65230;SDS011;51813;40.666;16.602;2024-02-23T12:50:14;5.97;;;4.80;;
65230;SDS011;51813;40.666;16.602;2024-02-23T12:52:41;5.90;;;4.47;;
65230;SDS011;51813;40.666;16.602;2024-02-23T12:55:08;6.82;;;4.60;;
65230;SDS011;51813;40.666;16.602;2024-02-23T12:57:34;6.55;;;4.60;;
65230;SDS011;51813;40.666;16.602;2024-02-23T12:59:59;6.18;;;4.72;;
65230;SDS011;51813;40.666;16.602;2024-02-23T13:02:25;6.22;;;4.55;;
65230;SDS011;51813;40.666;16.602;2024-02-23T13:04:51;5.97;;;4.57;;
65230;SDS011;51813;40.666;16.602;2024-02-23T13:07:16;7.40;;;4.55;;
65230;SDS011;51813;40.666;16.602;2024-02-23T13:09:43;7.53;;;4.63;;
65230;SDS011;51813;40.666;16.602;2024-02-23T13:12:09;7.35;;;5.10;;
65230;SDS011;51813;40.666;16.602;2024-02-23T13:14:35;8.18;;;4.78;;
65230;SDS011;51813;40.666;16.602;2024-02-23T13:17:00;7.85;;;4.80;;
65230;SDS011;51813;40.666;16.602;2024-02-23T13:19:26;5.72;;;4.43;;
65230;SDS011;51813;40.666;16.602;2024-02-23T13:21:52;6.70;;;4.63;;
65230;SDS011;51813;40.666;16.602;2024-02-23T13:24:18;5.07;;;4.15;;
65230;SDS011;51813;40.666;16.602;2024-02-23T13:26:44;6.10;;;4.70;;
65230;SDS011;51813;40.666;16.602;2024-02-23T13:29:09;5.57;;;4.60;;
65230;SDS011;51813;40.666;16.602;2024-02-23T13:31:35;6.47;;;4.65;;
65230;SDS011;51813;40.666;16.602;2024-02-23T13:34:03;5.47;;;4.55;;
65230;SDS011;51813;40.666;16.602;2024-02-23T13:36:28;5.05;;;4.05;;
65230;SDS011;51813;40.666;16.602;2024-02-23T13:38:54;5.63;;;4.45;;
65230;SDS011;51813;40.666;16.602;2024-02-23T13:41:20;6.55;;;4.72;;
65230;SDS011;51813;40.666;16.602;2024-02-23T13:43:45;5.70;;;4.57;;
65230;SDS011;51813;40.666;16.602;2024-02-23T13:46:11;6.40;;;4.47;;
65230;SDS011;51813;40.666;16.602;2024-02-23T13:48:37;5.88;;;3.88;;
65230;SDS011;51813;40.666;16.602;2024-02-23T13:51:03;7.72;;;4.53;;
65230;SDS011;51813;40.666;16.602;2024-02-23T13:53:30;9.07;;;4.45;;
65230;SDS011;51813;40.666;16.602;2024-02-23T13:55:57;8.80;;;4.53;;
65230;SDS011;51813;40.666;16.602;2024-02-23T13:58:23;7.88;;;4.30;;
65230;SDS011;51813;40.666;16.602;2024-02-23T14:00:49;7.80;;;4.20;;
65230;SDS011;51813;40.666;16.602;2024-02-23T14:03:18;6.03;;;4.00;;
65230;SDS011;51813;40.666;16.602;2024-02-23T14:05:43;6.07;;;4.38;;
65230;SDS011;51813;40.666;16.602;2024-02-23T14:08:11;6.80;;;4.38;;
65230;SDS011;51813;40.666;16.602;2024-02-23T14:10:36;6.85;;;4.13;;
65230;SDS011;51813;40.666;16.602;2024-02-23T14:13:02;7.43;;;4.38;;
65230;SDS011;51813;40.666;16.602;2024-02-23T14:15:28;6.10;;;4.50;;
65230;SDS011;51813;40.666;16.602;2024-02-23T14:17:54;5.68;;;4.43;;
65230;SDS011;51813;40.666;16.602;2024-02-23T14:20:19;6.07;;;4.03;;
65230;SDS011;51813;40.666;16.602;2024-02-23T14:22:45;5.68;;;3.83;;
65230;SDS011;51813;40.666;16.602;2024-02-23T14:25:11;6.55;;;4.07;;
65230;SDS011;51813;40.666;16.602;2024-02-23T14:27:37;6.53;;;4.75;;
65230;SDS011;51813;40.666;16.602;2024-02-23T14:30:03;5.45;;;3.90;;